createdAt,value
2018-09-13T00:00:41.530Z,52.37
2018-09-13T00:01:41.812Z,53.02
2018-09-13T00:02:41.546Z,52.34
2018-09-13T00:03:41.586Z,52.66
2018-09-13T00:04:41.613Z,52.25
2018-09-13T00:05:41.705Z,52.44
2018-09-13T00:06:41.731Z,52.28
2018-09-13T00:07:42.079Z,51.96
2018-09-13T00:08:41.743Z,52.44
2018-09-13T00:09:41.778Z,52.34
2018-09-13T00:10:41.808Z,52.28
2018-09-13T00:11:41.848Z,51.86
2018-09-13T00:12:41.924Z,52.15
2018-09-13T00:13:41.908Z,51.96
2018-09-13T00:14:42.298Z,51.59
2018-09-13T00:15:41.974Z,51.76
2018-09-13T00:16:42.057Z,52.15
2018-09-13T00:17:42.091Z,52.06
2018-09-13T00:18:42.072Z,51.59
2018-09-13T00:20:42.187Z,51.67
2018-09-13T00:21:42.472Z,51.67
2018-09-13T00:22:42.202Z,51.67
2018-09-13T00:23:42.286Z,51.76
2018-09-13T00:24:42.322Z,51.76
2018-09-13T00:25:42.354Z,52.06
2018-09-13T00:26:42.384Z,51.76
2018-09-13T00:27:42.420Z,51.57
2018-09-13T00:28:42.701Z,52.25
2018-09-13T00:29:42.488Z,51.67
2018-09-13T00:30:42.468Z,51.86
2018-09-13T00:31:42.550Z,51.76
2018-09-13T00:32:42.562Z,51.86
2018-09-13T00:33:42.617Z,51.86
2018-09-13T00:34:42.600Z,52.54
2018-09-13T00:35:42.932Z,52.34
2018-09-13T00:36:42.664Z,52.06
2018-09-13T00:37:42.700Z,51.89
2018-09-13T00:38:42.787Z,51.86
2018-09-13T00:39:42.762Z,51.96
2018-09-13T00:40:42.848Z,51.96
2018-09-13T00:41:42.830Z,51.76
2018-09-13T00:42:42.913Z,51.59
2018-09-13T00:43:42.895Z,51.57
2018-09-13T00:44:42.978Z,51.57
2018-09-13T00:45:43.012Z,51.86
2018-09-13T00:46:43.042Z,51.37
2018-09-13T00:47:43.030Z,51.67
2018-09-13T00:48:43.360Z,51.89
2018-09-13T00:49:43.092Z,51.76
2018-09-13T00:50:43.176Z,51.59
2018-09-13T00:51:43.209Z,51.21
2018-09-13T00:52:43.243Z,51.69
2018-09-13T00:53:43.224Z,51.47
2018-09-13T00:54:43.305Z,51.28
2018-09-13T00:55:43.588Z,51.67
2018-09-13T00:56:43.323Z,51.86
2018-09-13T00:57:43.407Z,51.57
2018-09-13T00:58:43.386Z,51.76
2018-09-13T00:59:43.422Z,51.67
2018-09-13T01:00:43.453Z,51.47
2018-09-13T01:01:43.486Z,51.57
2018-09-13T01:02:43.825Z,51.76
2018-09-13T01:03:43.569Z,51.59
2018-09-13T01:04:43.635Z,51.57
2018-09-13T01:05:43.617Z,51.86
2018-09-13T01:06:43.649Z,51.57
2018-09-13T01:07:43.734Z,51.76
2018-09-13T01:08:43.725Z,51.76
2018-09-13T01:09:44.055Z,51.76
2018-09-13T01:10:43.832Z,51.57
2018-09-13T01:11:43.872Z,51.76
2018-09-13T01:12:43.861Z,51.76
2018-09-13T01:13:43.940Z,51.57
2018-09-13T01:14:43.963Z,51.47
2018-09-13T01:15:44.323Z,51.67
2018-09-13T01:16:44.044Z,51.86
2018-09-13T01:17:44.015Z,51.76
2018-09-13T01:18:44.049Z,51.76
2018-09-13T01:19:44.088Z,51.76
2018-09-13T01:20:44.161Z,51.76
2018-09-13T01:21:44.444Z,51.57
2018-09-13T01:22:44.226Z,51.47
2018-09-13T01:23:44.277Z,51.47
2018-09-13T01:24:44.243Z,51.37
2018-09-13T01:25:44.427Z,51.76
2018-09-13T01:26:44.319Z,51.37
2018-09-13T01:27:44.643Z,50.99
2018-09-13T01:28:44.371Z,51.28
2018-09-13T01:29:44.569Z,51.28
2018-09-13T01:30:44.489Z,51.09
2018-09-13T01:31:44.471Z,51.28
2018-09-13T01:32:44.559Z,51.09
2018-09-13T01:33:44.541Z,51.28
2018-09-13T01:34:44.920Z,51.28
2018-09-13T01:35:44.603Z,51.67
2018-09-13T01:36:44.688Z,51.47
2018-09-13T01:37:44.723Z,51.47
2018-09-13T01:38:44.756Z,51.57
2018-09-13T01:39:44.734Z,51.67
2018-09-13T01:40:44.819Z,51.57
2018-09-13T01:41:45.132Z,51.57
2018-09-13T01:42:44.888Z,51.47
2018-09-13T01:43:44.918Z,51.57
2018-09-13T01:44:44.949Z,51.57
2018-09-13T01:45:44.984Z,51.76
2018-09-13T01:46:45.019Z,51.76
2018-09-13T01:47:45.047Z,51.86
2018-09-13T01:48:45.331Z,51.76
2018-09-13T01:49:45.067Z,51.57
2018-09-13T01:50:45.153Z,51.76
2018-09-13T01:51:45.134Z,51.76
2018-09-13T01:52:45.216Z,52.34
2018-09-13T01:53:45.194Z,51.57
2018-09-13T01:54:45.283Z,51.96
2018-09-13T01:55:45.664Z,52.25
2018-09-13T01:56:45.294Z,51.76
2018-09-13T01:57:45.377Z,52.51
2018-09-13T01:58:45.358Z,52.25
2018-09-13T01:59:45.427Z,52.42
2018-09-13T02:00:45.422Z,52.73
2018-09-13T02:01:45.461Z,52.22
2018-09-13T02:02:45.791Z,52.15
2018-09-13T02:03:45.521Z,52.32
2018-09-13T02:04:45.602Z,52.80
2018-09-13T02:05:45.650Z,52.61
2018-09-13T02:06:45.672Z,52.61
2018-09-13T02:07:45.662Z,52.51
2018-09-13T02:08:45.734Z,52.71
2018-09-13T02:09:46.070Z,53.00
2018-09-13T02:11:45.836Z,53.29
2018-09-13T02:12:45.866Z,52.80
2018-09-13T02:13:45.859Z,53.67
2018-09-13T02:14:45.934Z,53.17
2018-09-13T02:15:45.917Z,53.49
2018-09-13T02:16:46.246Z,52.80
2018-09-13T02:17:47.036Z,53.39
2018-09-13T02:18:46.063Z,53.17
2018-09-13T02:19:46.045Z,53.17
2018-09-13T02:20:46.078Z,53.26
2018-09-13T02:21:46.165Z,52.87
2018-09-13T02:22:46.191Z,53.49
2018-09-13T02:23:46.183Z,53.36
2018-09-13T02:24:46.263Z,53.45
2018-09-13T02:25:46.264Z,53.07
2018-09-13T02:26:46.275Z,53.39
2018-09-13T02:27:46.356Z,53.29
2018-09-13T02:28:46.338Z,53.00
2018-09-13T02:29:46.722Z,53.00
2018-09-13T02:30:46.452Z,53.49
2018-09-13T02:31:46.441Z,52.80
2018-09-13T02:32:46.469Z,52.80
2018-09-13T02:33:46.501Z,52.71
2018-09-13T02:34:46.593Z,52.71
2018-09-13T02:35:46.868Z,52.68
2018-09-13T02:36:46.651Z,53.00
2018-09-13T02:37:46.635Z,53.77
2018-09-13T02:38:46.715Z,53.00
2018-09-13T02:39:46.701Z,53.09
2018-09-13T02:40:46.780Z,53.36
2018-09-13T02:41:46.771Z,53.39
2018-09-13T02:42:46.854Z,52.90
2018-09-13T02:43:46.828Z,52.71
2018-09-13T02:44:46.862Z,53.07
2018-09-13T02:45:46.945Z,53.09
2018-09-13T02:46:46.976Z,53.39
2018-09-13T02:47:47.259Z,53.39
2018-09-13T02:48:47.005Z,52.90
2018-09-13T02:49:47.081Z,52.97
2018-09-13T02:50:47.054Z,53.19
2018-09-13T02:51:47.092Z,52.90
2018-09-13T02:52:47.172Z,53.45
2018-09-13T02:53:47.202Z,52.87
2018-09-13T02:54:47.488Z,53.55
2018-09-13T02:55:47.269Z,53.36
2018-09-13T02:56:47.253Z,53.45
2018-09-13T02:57:47.337Z,53.17
2018-09-13T02:58:47.320Z,53.55
2018-09-13T02:59:47.349Z,53.36
2018-09-13T03:00:47.431Z,53.55
2018-09-13T03:01:47.715Z,53.36
2018-09-13T03:02:47.494Z,53.26
2018-09-13T03:03:47.547Z,53.07
2018-09-13T03:04:47.567Z,53.45
2018-09-13T03:05:47.543Z,53.17
2018-09-13T03:06:47.625Z,53.26
2018-09-13T03:07:47.612Z,53.45
2018-09-13T03:08:47.992Z,53.36
2018-09-13T03:10:47.755Z,53.55
2018-09-13T03:11:47.795Z,53.75
2018-09-13T03:12:47.819Z,53.36
2018-09-13T03:13:47.807Z,54.23
2018-09-13T03:14:47.833Z,54.03
2018-09-13T03:15:48.166Z,53.45
2018-09-13T03:16:47.948Z,53.45
2018-09-13T03:17:47.955Z,53.94
2018-09-13T03:18:48.014Z,53.55
2018-09-13T03:19:47.998Z,53.55
2018-09-13T03:20:48.034Z,53.36
2018-09-13T03:21:48.112Z,53.75
2018-09-13T03:23:48.427Z,53.45
2018-09-13T03:24:48.217Z,53.55
2018-09-13T03:25:48.244Z,53.45
2018-09-13T03:26:48.274Z,53.55
2018-09-13T03:27:48.258Z,53.17
2018-09-13T03:28:48.347Z,53.55
2018-09-13T03:29:48.322Z,53.55
2018-09-13T03:30:48.710Z,53.26
2018-09-13T03:31:48.389Z,53.17
2018-09-13T03:32:48.430Z,52.97
2018-09-13T03:33:48.499Z,53.55
2018-09-13T03:34:48.533Z,53.45
2018-09-13T03:35:48.517Z,53.55
2018-09-13T03:36:48.598Z,53.65
2018-09-13T03:37:48.881Z,53.36
2018-09-13T03:38:48.661Z,53.55
2018-09-13T03:39:48.693Z,53.45
2018-09-13T03:40:48.680Z,53.45
2018-09-13T03:41:48.793Z,53.17
2018-09-13T03:42:48.819Z,53.65
2018-09-13T03:43:48.774Z,53.94
2018-09-13T03:44:49.167Z,53.65
2018-09-13T03:45:49.031Z,54.33
2018-09-13T03:46:48.894Z,53.94
2018-09-13T03:47:48.953Z,53.94
2018-09-13T03:48:48.939Z,53.75
2018-09-13T03:49:49.031Z,54.13
2018-09-13T03:50:49.004Z,53.94
2018-09-13T03:51:49.349Z,54.13
2018-09-13T03:52:49.068Z,53.85
2018-09-13T03:53:49.547Z,53.94
2018-09-13T03:54:49.989Z,53.85
2018-09-13T03:55:49.557Z,53.85
2018-09-13T03:56:49.703Z,54.33
2018-09-13T03:57:50.191Z,54.33
2018-09-13T03:58:49.561Z,54.13
2018-09-13T03:59:49.293Z,54.43
2018-09-13T04:00:49.378Z,54.11
2018-09-13T04:01:49.358Z,54.30
2018-09-13T04:02:49.447Z,54.33
2018-09-13T04:04:49.456Z,53.91
2018-09-13T04:05:49.840Z,54.21
2018-09-13T04:06:49.567Z,54.21
2018-09-13T04:07:49.553Z,54.11
2018-09-13T04:08:49.632Z,54.43
2018-09-13T04:09:49.616Z,54.21
2018-09-13T04:10:49.646Z,54.39
2018-09-13T04:11:49.729Z,54.30
2018-09-13T04:12:50.073Z,54.88
2018-09-13T04:13:49.746Z,54.21
2018-09-13T04:14:49.829Z,54.49
2018-09-13T04:15:49.810Z,54.98
2018-09-13T04:16:49.841Z,54.39
2018-09-13T04:17:49.924Z,54.39
2018-09-13T04:18:50.048Z,54.39
2018-09-13T04:19:50.238Z,54.39
2018-09-13T04:20:50.020Z,54.30
2018-09-13T04:21:50.006Z,54.21
2018-09-13T04:22:50.271Z,54.01
2018-09-13T04:23:50.122Z,53.81
2018-09-13T04:24:50.167Z,54.30
2018-09-13T04:25:50.194Z,54.01
2018-09-13T04:26:50.518Z,54.30
2018-09-13T04:27:50.194Z,54.03
2018-09-13T04:28:50.234Z,53.81
2018-09-13T04:29:50.320Z,53.72
2018-09-13T04:30:50.347Z,53.81
2018-09-13T04:31:50.373Z,54.01
2018-09-13T04:33:50.397Z,54.01
2018-09-13T04:34:50.722Z,54.01
2018-09-13T04:35:50.498Z,54.01
2018-09-13T04:36:50.537Z,53.91
2018-09-13T04:37:50.519Z,53.81
2018-09-13T04:38:50.551Z,53.91
2018-09-13T04:39:50.638Z,54.30
2018-09-13T04:40:50.665Z,54.01
2018-09-13T04:41:51.000Z,54.39
2018-09-13T04:42:50.730Z,54.21
2018-09-13T04:43:50.727Z,54.30
2018-09-13T04:44:50.794Z,54.01
2018-09-13T04:45:50.784Z,54.21
2018-09-13T04:46:50.857Z,54.21
2018-09-13T04:47:50.842Z,54.30
2018-09-13T04:48:51.172Z,54.39
2018-09-13T04:49:50.905Z,53.72
2018-09-13T04:50:50.938Z,53.81
2018-09-13T04:51:51.018Z,53.63
2018-09-13T04:52:51.051Z,54.30
2018-09-13T04:53:51.088Z,53.91
2018-09-13T04:54:51.066Z,54.39
2018-09-13T04:55:51.449Z,53.72
2018-09-13T04:56:51.184Z,53.91
2018-09-13T04:58:51.246Z,53.91
2018-09-13T04:59:51.228Z,53.72
2018-09-13T05:00:51.322Z,54.39
2018-09-13T05:01:51.341Z,54.01
2018-09-13T05:02:51.630Z,53.91
2018-09-13T05:03:51.409Z,53.91
2018-09-13T05:04:51.442Z,53.91
2018-09-13T05:05:51.420Z,54.30
2018-09-13T05:06:51.501Z,53.81
2018-09-13T05:07:51.483Z,53.81
2018-09-13T05:08:51.576Z,54.30
2018-09-13T05:09:51.852Z,53.72
2018-09-13T05:10:51.630Z,53.81
2018-09-13T05:11:51.665Z,54.30
2018-09-13T05:12:51.762Z,54.47
2018-09-13T05:13:51.680Z,54.39
2018-09-13T05:14:51.759Z,54.30
2018-09-13T05:15:51.797Z,54.27
2018-09-13T05:16:52.078Z,54.27
2018-09-13T05:17:51.917Z,54.39
2018-09-13T05:18:51.838Z,54.30
2018-09-13T05:19:51.888Z,54.27
2018-09-13T05:20:51.917Z,54.30
2018-09-13T05:21:52.034Z,53.81
2018-09-13T05:22:52.024Z,54.47
2018-09-13T05:23:52.302Z,54.21
2018-09-13T05:24:52.098Z,53.72
2018-09-13T05:25:52.062Z,53.81
2018-09-13T05:26:52.151Z,54.49
2018-09-13T05:27:52.127Z,54.17
2018-09-13T05:28:52.268Z,54.27
2018-09-13T05:29:52.494Z,54.27
2018-09-13T05:30:52.226Z,54.17
2018-09-13T05:31:52.311Z,54.21
2018-09-13T05:32:52.343Z,54.21
2018-09-13T05:33:52.323Z,54.17
2018-09-13T05:34:52.403Z,54.27
2018-09-13T05:35:52.697Z,54.17
2018-09-13T05:36:52.435Z,54.17
2018-09-13T05:37:52.503Z,54.08
2018-09-13T05:38:52.593Z,54.17
2018-09-13T05:39:52.512Z,54.17
2018-09-13T05:40:52.601Z,54.17
2018-09-13T05:41:52.880Z,53.99
2018-09-13T05:42:52.662Z,54.30
2018-09-13T05:43:52.638Z,53.89
2018-09-13T05:44:52.727Z,54.27
2018-09-13T05:45:52.704Z,54.17
2018-09-13T05:46:52.755Z,54.39
2018-09-13T05:47:53.160Z,54.27
2018-09-13T05:48:53.104Z,53.99
2018-09-13T05:49:52.890Z,53.99
2018-09-13T05:50:52.922Z,54.27
2018-09-13T05:51:52.955Z,54.17
2018-09-13T05:52:52.988Z,54.27
2018-09-13T05:53:52.972Z,54.27
2018-09-13T05:54:53.048Z,54.27
2018-09-13T05:55:53.331Z,54.39
2018-09-13T05:56:53.108Z,54.17
2018-09-13T05:57:53.096Z,53.99
2018-09-13T05:58:53.193Z,54.27
2018-09-13T05:59:53.166Z,54.27
2018-09-13T06:00:53.237Z,54.37
2018-09-13T06:01:53.228Z,54.27
2018-09-13T06:02:53.578Z,54.27
2018-09-13T06:03:54.984Z,54.17
2018-09-13T06:04:53.364Z,54.08
2018-09-13T06:05:53.403Z,54.27
2018-09-13T06:06:53.379Z,54.27
2018-09-13T06:07:53.425Z,54.27
2018-09-13T06:08:53.549Z,53.99
2018-09-13T06:09:53.784Z,54.17
2018-09-13T06:10:53.561Z,54.08
2018-09-13T06:11:53.540Z,54.95
2018-09-13T06:12:53.581Z,54.08
2018-09-13T06:13:53.667Z,54.08
2018-09-13T06:14:53.686Z,53.89
2018-09-13T06:15:53.668Z,53.99
2018-09-13T06:16:54.003Z,54.17
2018-09-13T06:17:53.739Z,54.17
2018-09-13T06:18:53.818Z,54.08
2018-09-13T06:19:53.923Z,54.37
2018-09-13T06:20:53.884Z,54.27
2018-09-13T06:21:53.931Z,54.08
2018-09-13T06:22:53.909Z,54.57
2018-09-13T06:23:54.229Z,54.17
2018-09-13T06:24:53.964Z,54.08
2018-09-13T06:25:54.047Z,54.75
2018-09-13T06:26:54.076Z,54.17
2018-09-13T06:27:54.052Z,53.89
2018-09-13T06:28:54.093Z,54.47
2018-09-13T06:29:54.122Z,54.27
2018-09-13T06:30:54.452Z,54.37
2018-09-13T06:31:54.237Z,54.27
2018-09-13T06:32:54.265Z,54.17
2018-09-13T06:33:54.301Z,53.99
2018-09-13T06:34:54.275Z,54.17
2018-09-13T06:35:54.335Z,54.17
2018-09-13T06:36:54.396Z,54.08
2018-09-13T06:37:54.682Z,54.17
2018-09-13T06:38:54.465Z,54.17
2018-09-13T06:39:54.445Z,54.08
2018-09-13T06:40:54.523Z,54.27
2018-09-13T06:41:54.569Z,54.27
2018-09-13T06:42:54.593Z,54.17
2018-09-13T06:43:54.568Z,53.79
2018-09-13T06:44:54.897Z,54.27
2018-09-13T06:45:54.685Z,53.79
2018-09-13T06:46:54.711Z,54.17
2018-09-13T06:47:54.698Z,54.27
2018-09-13T06:48:54.796Z,54.17
2018-09-13T06:49:54.810Z,53.99
2018-09-13T06:50:54.787Z,54.17
2018-09-13T06:51:55.131Z,53.99
2018-09-13T06:52:54.910Z,54.85
2018-09-13T06:53:54.896Z,54.75
2018-09-13T06:54:54.921Z,54.57
2018-09-13T06:55:54.947Z,54.57
2018-09-13T06:56:54.980Z,54.85
2018-09-13T06:57:55.065Z,54.66
2018-09-13T06:58:55.352Z,54.79
2018-09-13T06:59:55.139Z,54.79
2018-09-13T07:00:55.108Z,54.59
2018-09-13T07:01:55.147Z,54.39
2018-09-13T07:02:55.183Z,54.39
2018-09-13T07:03:55.210Z,54.21
2018-09-13T07:04:55.299Z,54.21
2018-09-13T07:05:55.574Z,54.39
2018-09-13T07:06:55.354Z,54.21
2018-09-13T07:07:55.333Z,54.39
2018-09-13T07:08:55.450Z,53.81
2018-09-13T07:09:55.396Z,53.72
2018-09-13T07:10:55.483Z,53.91
2018-09-13T07:11:55.765Z,53.91
2018-09-13T07:12:55.500Z,53.81
2018-09-13T07:13:55.591Z,53.91
2018-09-13T07:14:55.558Z,54.01
2018-09-13T07:15:55.644Z,54.01
2018-09-13T07:16:55.672Z,54.01
2018-09-13T07:17:55.960Z,53.72
2018-09-13T07:18:55.687Z,53.81
2018-09-13T07:19:55.720Z,53.53
2018-09-13T07:20:55.806Z,53.53
2018-09-13T07:21:55.780Z,53.53
2018-09-13T07:22:55.883Z,53.43
2018-09-13T07:23:56.146Z,53.43
2018-09-13T07:24:55.934Z,53.53
2018-09-13T07:25:55.914Z,53.33
2018-09-13T07:26:55.955Z,53.45
2018-09-13T07:27:56.027Z,52.95
2018-09-13T07:28:56.005Z,53.55
2018-09-13T07:29:56.109Z,53.26
2018-09-13T07:30:56.408Z,53.26
2018-09-13T07:31:56.101Z,53.26
2018-09-13T07:33:56.218Z,53.45
2018-09-13T07:34:56.252Z,53.36
2018-09-13T07:35:56.237Z,53.36
2018-09-13T07:36:56.361Z,53.17
2018-09-13T07:37:56.595Z,53.36
2018-09-13T07:38:56.376Z,53.26
2018-09-13T07:39:56.379Z,53.26
2018-09-13T07:40:56.406Z,53.45
2018-09-13T07:41:56.476Z,53.45
2018-09-13T07:42:56.617Z,53.85
2018-09-13T07:43:56.495Z,53.36
2018-09-13T07:44:56.537Z,53.07
2018-09-13T07:45:56.558Z,52.78
2018-09-13T07:46:56.643Z,52.87
2018-09-13T07:47:56.665Z,52.68
2018-09-13T07:48:56.717Z,52.68
2018-09-13T07:49:56.834Z,52.68
2018-09-13T07:50:56.730Z,53.07
2018-09-13T07:51:56.800Z,53.07
2018-09-13T07:52:56.783Z,53.36
2018-09-13T07:53:56.868Z,53.36
2018-09-13T07:54:56.846Z,52.68
2018-09-13T07:55:56.885Z,53.17
2018-09-13T07:56:57.216Z,52.97
2018-09-13T07:57:56.942Z,52.97
2018-09-13T07:58:57.029Z,52.97
2018-09-13T07:59:57.022Z,52.78
2018-09-13T08:00:57.094Z,52.78
2018-09-13T08:01:57.079Z,52.97
2018-09-13T08:02:57.149Z,52.78
2018-09-13T08:03:57.438Z,52.68
2018-09-13T08:04:57.262Z,52.58
2018-09-13T08:05:57.197Z,52.68
2018-09-13T08:06:57.284Z,52.68
2018-09-13T08:07:57.321Z,52.39
2018-09-13T08:08:57.291Z,52.78
2018-09-13T08:09:57.381Z,52.68
2018-09-13T08:10:57.411Z,52.68
2018-09-13T08:11:57.420Z,52.39
2018-09-13T08:12:57.435Z,52.29
2018-09-13T08:13:57.458Z,52.39
2018-09-13T08:14:57.540Z,52.39
2018-09-13T08:15:57.874Z,52.49
2018-09-13T08:16:57.603Z,52.39
2018-09-13T08:17:57.583Z,52.39
2018-09-13T08:18:57.670Z,52.49
2018-09-13T08:19:57.699Z,52.49
2018-09-13T08:20:57.738Z,52.39
2018-09-13T08:21:58.023Z,52.29
2018-09-13T08:22:57.751Z,52.39
2018-09-13T08:23:57.828Z,52.58
2018-09-13T08:24:57.818Z,52.49
2018-09-13T08:25:57.848Z,52.58
2018-09-13T08:26:57.938Z,52.71
2018-09-13T08:27:57.907Z,52.58
2018-09-13T08:28:58.293Z,52.58
2018-09-13T08:29:57.977Z,52.49
2018-09-13T08:30:58.053Z,52.78
2018-09-13T08:31:58.043Z,52.80
2018-09-13T08:32:58.123Z,52.78
2018-09-13T08:33:58.116Z,52.29
2018-09-13T08:34:58.371Z,52.22
2018-09-13T08:35:58.474Z,52.32
2018-09-13T08:36:58.298Z,52.22
2018-09-13T08:37:58.285Z,52.51
2018-09-13T08:38:58.319Z,52.00
2018-09-13T08:39:58.448Z,52.61
2018-09-13T08:40:58.339Z,52.58
2018-09-13T08:41:58.414Z,52.10
2018-09-13T08:42:58.488Z,52.32
2018-09-13T08:43:58.429Z,52.22
2018-09-13T08:44:58.460Z,52.42
2018-09-13T08:45:58.494Z,52.42
2018-09-13T08:46:58.530Z,52.32
2018-09-13T08:47:58.605Z,52.39
2018-09-13T08:48:58.598Z,52.42
2018-09-13T08:49:58.619Z,52.42
2018-09-13T08:50:58.656Z,52.32
2018-09-13T08:51:58.766Z,52.42
2018-09-13T08:52:58.728Z,52.51
2018-09-13T08:53:58.804Z,52.03
2018-09-13T08:54:59.092Z,52.29
2018-09-13T08:55:58.815Z,52.22
2018-09-13T08:56:58.901Z,52.22
2018-09-13T08:57:58.888Z,52.42
2018-09-13T08:58:58.911Z,52.42
2018-09-13T08:59:58.999Z,51.93
2018-09-13T09:00:59.034Z,52.42
2018-09-13T09:01:59.061Z,52.42
2018-09-13T09:02:59.101Z,52.42
2018-09-13T09:03:59.076Z,52.39
2018-09-13T09:04:59.167Z,52.42
2018-09-13T09:05:59.155Z,52.51
2018-09-13T09:06:59.476Z,52.03
2018-09-13T09:07:59.208Z,52.22
2018-09-13T09:08:59.288Z,52.22
2018-09-13T09:09:59.324Z,52.32
2018-09-13T09:10:59.356Z,52.29
2018-09-13T09:11:59.424Z,52.22
2018-09-13T09:12:59.367Z,51.93
2018-09-13T09:13:59.415Z,51.72
2018-09-13T09:14:59.432Z,51.93
2018-09-13T09:15:59.513Z,51.93
2018-09-13T09:16:59.553Z,52.12
2018-09-13T09:17:59.527Z,52.12
2018-09-13T09:18:59.872Z,51.74
2018-09-13T09:19:59.652Z,51.74
2018-09-13T09:20:59.633Z,51.54
2018-09-13T09:21:59.707Z,51.93
2018-09-13T09:22:59.698Z,51.54
2018-09-13T09:23:59.833Z,51.74
2018-09-13T09:24:59.766Z,51.64
2018-09-13T09:26:00.102Z,51.74
2018-09-13T09:26:59.877Z,51.45
2018-09-13T09:27:59.857Z,51.64
2018-09-13T09:28:59.952Z,51.84
2018-09-13T09:29:59.976Z,51.54
2018-09-13T09:31:00.006Z,51.64
2018-09-13T09:31:59.999Z,51.93
2018-09-13T09:33:00.069Z,51.93
2018-09-13T09:34:00.054Z,51.45
2018-09-13T09:35:00.188Z,51.64
2018-09-13T09:36:00.120Z,51.93
2018-09-13T09:37:00.157Z,51.84
2018-09-13T09:38:00.234Z,51.84
2018-09-13T09:39:00.276Z,51.74
2018-09-13T09:40:00.252Z,51.74
2018-09-13T09:41:00.283Z,51.74
2018-09-13T09:42:00.370Z,52.03
2018-09-13T09:43:00.401Z,51.93
2018-09-13T09:44:00.434Z,52.03
2018-09-13T09:45:00.707Z,51.25
2018-09-13T09:46:00.447Z,51.25
2018-09-13T09:47:00.527Z,51.64
2018-09-13T09:48:00.557Z,51.54
2018-09-13T09:49:00.601Z,51.54
2018-09-13T09:50:00.577Z,51.64
2018-09-13T09:51:00.658Z,51.45
2018-09-13T09:52:00.641Z,51.64
2018-09-13T09:53:00.721Z,51.45
2018-09-13T09:54:00.755Z,51.54
2018-09-13T09:55:00.742Z,51.64
2018-09-13T09:56:00.858Z,51.64
2018-09-13T09:57:01.113Z,51.84
2018-09-13T09:58:01.009Z,51.74
2018-09-13T09:59:01.118Z,51.64
2018-09-13T10:00:00.898Z,51.35
2018-09-13T10:01:00.939Z,51.25
2018-09-13T10:02:00.972Z,51.25
2018-09-13T10:03:01.092Z,51.25
2018-09-13T10:04:01.034Z,51.45
2018-09-13T10:05:01.109Z,51.54
2018-09-13T10:06:01.149Z,51.35
2018-09-13T10:07:01.176Z,51.25
2018-09-13T10:08:01.163Z,51.06
2018-09-13T10:09:01.276Z,51.47
2018-09-13T10:10:01.527Z,51.35
2018-09-13T10:11:01.313Z,51.16
2018-09-13T10:12:01.364Z,51.28
2018-09-13T10:13:01.329Z,51.35
2018-09-13T10:14:01.356Z,51.47
2018-09-13T10:15:01.454Z,51.45
2018-09-13T10:16:01.523Z,51.37
2018-09-13T10:17:01.502Z,51.18
2018-09-13T10:18:01.544Z,51.67
2018-09-13T10:19:01.574Z,50.89
2018-09-13T10:20:01.905Z,50.89
2018-09-13T10:21:01.588Z,50.67
2018-09-13T10:22:01.621Z,50.87
2018-09-13T10:23:02.124Z,51.18
2018-09-13T10:24:01.685Z,51.06
2018-09-13T10:25:01.773Z,50.67
2018-09-13T10:26:01.814Z,51.06
2018-09-13T10:27:01.930Z,50.67
2018-09-13T10:28:01.863Z,50.79
2018-09-13T10:29:01.849Z,50.89
2018-09-13T10:30:02.065Z,50.79
2018-09-13T10:31:01.920Z,51.09
2018-09-13T10:32:02.031Z,50.99
2018-09-13T10:33:02.035Z,51.09
2018-09-13T10:34:02.060Z,50.89
2018-09-13T10:35:02.095Z,50.89
2018-09-13T10:36:02.380Z,51.09
2018-09-13T10:37:02.164Z,50.99
2018-09-13T10:38:02.199Z,51.18
2018-09-13T10:39:02.234Z,50.89
2018-09-13T10:40:02.262Z,50.99
2018-09-13T10:41:02.243Z,50.89
2018-09-13T10:42:02.578Z,50.89
2018-09-13T10:43:02.310Z,50.70
2018-09-13T10:44:02.394Z,50.41
2018-09-13T10:45:02.429Z,50.70
2018-09-13T10:46:02.462Z,50.60
2018-09-13T10:47:02.499Z,50.60
2018-09-13T10:48:02.856Z,50.50
2018-09-13T10:49:02.554Z,50.41
2018-09-13T10:50:02.590Z,50.43
2018-09-13T10:51:02.622Z,50.41
2018-09-13T10:52:02.604Z,50.41
2018-09-13T10:53:02.650Z,50.60
2018-09-13T10:54:02.673Z,50.62
2018-09-13T10:55:03.001Z,50.60
2018-09-13T10:56:02.738Z,50.41
2018-09-13T10:57:02.835Z,50.24
2018-09-13T10:58:02.799Z,50.34
2018-09-13T10:59:02.943Z,50.24
2018-09-13T11:00:02.929Z,50.53
2018-09-13T11:01:02.958Z,50.43
2018-09-13T11:02:03.236Z,50.24
2018-09-13T11:03:02.968Z,49.95
2018-09-13T11:04:03.082Z,50.04
2018-09-13T11:05:03.088Z,49.75
2018-09-13T11:06:03.065Z,49.56
2018-09-13T11:07:03.147Z,49.56
2018-09-13T11:08:03.192Z,49.75
2018-09-13T11:09:03.471Z,49.56
2018-09-13T11:10:03.247Z,49.56
2018-09-13T11:11:03.337Z,49.95
2018-09-13T11:12:03.265Z,49.75
2018-09-13T11:13:03.308Z,49.85
2018-09-13T11:14:03.380Z,49.56
2018-09-13T11:15:03.418Z,50.04
2018-09-13T11:16:03.396Z,49.85
2018-09-13T11:17:03.487Z,50.04
2018-09-13T11:18:03.517Z,50.04
2018-09-13T11:19:03.519Z,49.85
2018-09-13T11:20:03.580Z,49.95
2018-09-13T11:21:03.620Z,50.04
2018-09-13T11:22:03.903Z,50.24
2018-09-13T11:23:03.629Z,50.04
2018-09-13T11:24:03.668Z,49.85
2018-09-13T11:25:03.702Z,49.46
2018-09-13T11:26:03.732Z,49.37
2018-09-13T11:27:03.842Z,49.27
2018-09-13T11:28:03.799Z,49.66
2018-09-13T11:29:04.133Z,49.66
2018-09-13T11:30:03.864Z,49.56
2018-09-13T11:31:03.954Z,49.75
2018-09-13T11:32:03.986Z,49.46
2018-09-13T11:33:04.017Z,49.66
2018-09-13T11:34:04.002Z,49.56
2018-09-13T11:35:04.085Z,49.56
2018-09-13T11:36:04.116Z,49.66
2018-09-13T11:37:04.153Z,49.68
2018-09-13T11:38:04.142Z,49.75
2018-09-13T11:39:04.175Z,49.97
2018-09-13T11:40:04.273Z,49.29
2018-09-13T11:41:04.392Z,49.10
2018-09-13T11:42:04.589Z,49.19
2018-09-13T11:43:04.367Z,49.00
2018-09-13T11:44:04.338Z,49.29
2018-09-13T11:45:04.427Z,49.10
2018-09-13T11:46:04.419Z,49.00
2018-09-13T11:47:04.443Z,49.49
2018-09-13T11:48:04.779Z,49.00
2018-09-13T11:49:04.562Z,49.49
2018-09-13T11:50:04.596Z,49.00
2018-09-13T11:51:04.578Z,49.19
2018-09-13T11:52:04.658Z,49.10
2018-09-13T11:53:04.694Z,49.19
2018-09-13T11:54:05.085Z,49.19
2018-09-13T11:55:04.768Z,49.00
2018-09-13T11:56:04.798Z,49.49
2018-09-13T11:57:04.786Z,49.19
2018-09-13T11:58:04.875Z,49.29
2018-09-13T11:59:04.909Z,49.39
2018-09-13T12:01:05.241Z,49.10
2018-09-13T12:02:05.064Z,49.19
2018-09-13T12:03:05.031Z,49.00
2018-09-13T12:04:05.073Z,49.10
2018-09-13T12:05:05.114Z,49.10
2018-09-13T12:06:05.085Z,49.49
2018-09-13T12:07:05.123Z,49.19
2018-09-13T12:08:05.209Z,49.49
2018-09-13T12:09:05.191Z,49.19
2018-09-13T12:10:05.275Z,49.29
2018-09-13T12:11:05.258Z,49.10
2018-09-13T12:12:05.293Z,49.29
2018-09-13T12:13:05.622Z,49.27
2018-09-13T12:14:05.414Z,49.87
2018-09-13T12:15:05.442Z,49.39
2018-09-13T12:16:05.432Z,49.00
2018-09-13T12:17:05.455Z,49.97
2018-09-13T12:18:05.527Z,49.87
2018-09-13T12:19:05.524Z,49.19
2018-09-13T12:20:05.866Z,49.87
2018-09-13T12:21:05.647Z,49.39
2018-09-13T12:22:05.634Z,49.87
2018-09-13T12:23:05.667Z,49.68
2018-09-13T12:24:05.744Z,49.87
2018-09-13T12:25:05.783Z,49.87
2018-09-13T12:26:05.817Z,49.39
2018-09-13T12:27:06.097Z,49.97
2018-09-13T12:28:05.838Z,49.58
2018-09-13T12:29:05.925Z,49.39
2018-09-13T12:30:05.903Z,49.39
2018-09-13T12:31:05.981Z,49.19
2018-09-13T12:32:05.965Z,49.39
2018-09-13T12:33:06.074Z,49.00
2018-09-13T12:34:06.333Z,49.29
2018-09-13T12:35:06.126Z,49.29
2018-09-13T12:36:06.108Z,49.10
2018-09-13T12:37:06.205Z,49.19
2018-09-13T12:38:06.226Z,49.49
2018-09-13T12:39:06.262Z,49.19
2018-09-13T12:40:06.241Z,49.19
2018-09-13T12:41:06.335Z,49.19
2018-09-13T12:42:06.317Z,49.10
2018-09-13T12:43:06.393Z,49.10
2018-09-13T12:44:06.377Z,48.90
2018-09-13T12:45:06.463Z,49.19
2018-09-13T12:46:06.495Z,49.29
2018-09-13T12:47:06.836Z,49.00
2018-09-13T12:48:06.508Z,49.29
2018-09-13T12:49:06.596Z,48.71
2018-09-13T12:50:06.589Z,48.90
2018-09-13T12:51:06.673Z,49.00
2018-09-13T12:52:06.744Z,49.00
2018-09-13T12:53:06.737Z,48.61
2018-09-13T12:54:06.808Z,49.10
2018-09-13T12:55:06.752Z,48.61
2018-09-13T12:56:06.936Z,48.71
2018-09-13T12:57:06.896Z,48.80
2018-09-13T12:58:06.850Z,48.80
2018-09-13T12:59:06.939Z,48.80
2018-09-13T13:00:06.972Z,48.90
2018-09-13T13:01:07.228Z,48.71
2018-09-13T13:02:07.063Z,48.93